ANG292 AYNZ-AYMO
Flight info
| Callsign | ANG292 |
|---|---|
| Flight time | 0h 52m |
| Altitude | 32000 |
| Route | LARID H796 AVLIX H780 TEKEE |
| Aircraft | B738/M-SDE2E3FGHIRWXY/LB1 |
Departure
| Time | 2026-05-08 14:40 |
|---|---|
| Airport | Nadzab Tomodachi International Airport (AYNZ) |
Arrival
| Time | 2026-05-08 15:32 |
|---|---|
| Airport | Momote Airport (AYMO) |
| Time | Latitude | Longitude | Altitude | Speed | Heading |
|---|---|---|---|---|---|
| 2026-05-08 14:17 | -6.56615 | 146.72998 | 208 ft | 0 kts | 6° |
| 2026-05-08 14:35 | -6.56613 | 146.73001 | 213 ft | 1 kts | 51° |
| 2026-05-08 14:35 | -6.56624 | 146.73007 | 217 ft | 5 kts | 172° |
| 2026-05-08 14:36 | -6.56672 | 146.72982 | 212 ft | 12 kts | 245° |
| 2026-05-08 14:36 | -6.56675 | 146.72903 | 212 ft | 11 kts | 264° |
| 2026-05-08 14:36 | -6.56739 | 146.72885 | 212 ft | 14 kts | 179° |
| 2026-05-08 14:36 | -6.56797 | 146.72801 | 212 ft | 22 kts | 277° |
| 2026-05-08 14:37 | -6.56782 | 146.72627 | 209 ft | 27 kts | 275° |
| 2026-05-08 14:37 | -6.56766 | 146.72445 | 209 ft | 25 kts | 275° |
| 2026-05-08 14:37 | -6.56752 | 146.72276 | 209 ft | 23 kts | 275° |
| 2026-05-08 14:37 | -6.56739 | 146.72116 | 209 ft | 23 kts | 275° |
| 2026-05-08 14:38 | -6.56725 | 146.71961 | 209 ft | 22 kts | 275° |
| 2026-05-08 14:38 | -6.56712 | 146.71811 | 209 ft | 21 kts | 275° |
| 2026-05-08 14:38 | -6.56702 | 146.71698 | 209 ft | 15 kts | 275° |
| 2026-05-08 14:38 | -6.56710 | 146.71600 | 210 ft | 14 kts | 248° |
| 2026-05-08 14:39 | -6.56783 | 146.71545 | 211 ft | 13 kts | 198° |
| 2026-05-08 14:39 | -6.56873 | 146.71537 | 210 ft | 11 kts | 165° |
| 2026-05-08 14:39 | -6.56886 | 146.71563 | 210 ft | 0 kts | 96° |
| 2026-05-08 14:39 | -6.56908 | 146.71802 | 215 ft | 70 kts | 95° |
| 2026-05-08 14:40 | -6.56972 | 146.72520 | 216 ft | 134 kts | 95° |
| 2026-05-08 14:40 | -6.57074 | 146.73614 | 288 ft | 179 kts | 96° |
| 2026-05-08 14:40 | -6.57186 | 146.74870 | 989 ft | 180 kts | 95° |
| 2026-05-08 14:40 | -6.57443 | 146.76111 | 1724 ft | 185 kts | 115° |
| 2026-05-08 14:41 | -6.58173 | 146.77209 | 2294 ft | 203 kts | 131° |
| 2026-05-08 14:41 | -6.59147 | 146.78320 | 2648 ft | 221 kts | 131° |
| 2026-05-08 14:41 | -6.60200 | 146.79550 | 2931 ft | 240 kts | 130° |
| 2026-05-08 14:41 | -6.61289 | 146.80921 | 3225 ft | 261 kts | 128° |
| 2026-05-08 14:42 | -6.62393 | 146.82413 | 3818 ft | 270 kts | 126° |
| 2026-05-08 14:42 | -6.63476 | 146.83958 | 4776 ft | 271 kts | 124° |
| 2026-05-08 14:42 | -6.64539 | 146.85533 | 5522 ft | 272 kts | 123° |
| 2026-05-08 14:42 | -6.65589 | 146.87125 | 6368 ft | 275 kts | 123° |
| 2026-05-08 14:43 | -6.66652 | 146.88760 | 7115 ft | 284 kts | 122° |
| 2026-05-08 14:43 | -6.67735 | 146.90441 | 7689 ft | 286 kts | 122° |
| 2026-05-08 14:43 | -6.68799 | 146.92105 | 8550 ft | 280 kts | 122° |
| 2026-05-08 14:43 | -6.69850 | 146.93753 | 9405 ft | 279 kts | 122° |
| 2026-05-08 14:44 | -6.70898 | 146.95396 | 10197 ft | 281 kts | 121° |
| 2026-05-08 14:44 | -6.71984 | 146.97102 | 10491 ft | 301 kts | 121° |
| 2026-05-08 14:44 | -6.73027 | 146.99007 | 10632 ft | 322 kts | 108° |
| 2026-05-08 14:44 | -6.73314 | 147.01297 | 10787 ft | 342 kts | 85° |
| 2026-05-08 14:45 | -6.72665 | 147.03657 | 10920 ft | 363 kts | 64° |
| 2026-05-08 14:45 | -6.71306 | 147.05622 | 11156 ft | 377 kts | 49° |
| 2026-05-08 14:45 | -6.71215 | 147.05720 | 11171 ft | 377 kts | 47° |
| 2026-05-08 14:45 | -6.69882 | 147.06952 | 11478 ft | 382 kts | 41° |
| 2026-05-08 14:46 | -6.68397 | 147.08089 | 11822 ft | 386 kts | 37° |
| 2026-05-08 14:46 | -6.66156 | 147.09596 | 12341 ft | 389 kts | 34° |
| 2026-05-08 14:46 | -6.63855 | 147.11044 | 12919 ft | 391 kts | 33° |
| 2026-05-08 14:46 | -6.61527 | 147.12486 | 13424 ft | 394 kts | 33° |
| 2026-05-08 14:47 | -6.59190 | 147.13941 | 13935 ft | 396 kts | 34° |
| 2026-05-08 14:47 | -6.56844 | 147.15416 | 14380 ft | 399 kts | 34° |
| 2026-05-08 14:47 | -6.54489 | 147.16911 | 14792 ft | 402 kts | 34° |
| 2026-05-08 14:47 | -6.52151 | 147.18406 | 15221 ft | 404 kts | 34° |
| 2026-05-08 14:48 | -6.49781 | 147.19928 | 15660 ft | 405 kts | 34° |
| 2026-05-08 14:48 | -6.47396 | 147.21462 | 16046 ft | 409 kts | 34° |
| 2026-05-08 14:48 | -6.44991 | 147.23011 | 16439 ft | 412 kts | 34° |
| 2026-05-08 14:48 | -6.42574 | 147.24568 | 16843 ft | 414 kts | 34° |
| 2026-05-08 14:49 | -6.40143 | 147.26135 | 17221 ft | 417 kts | 34° |
| 2026-05-08 14:49 | -6.37691 | 147.27715 | 17571 ft | 420 kts | 34° |
| 2026-05-08 14:49 | -6.35223 | 147.29304 | 17918 ft | 423 kts | 34° |
| 2026-05-08 14:49 | -6.32741 | 147.30903 | 18276 ft | 425 kts | 34° |
| 2026-05-08 14:50 | -6.30245 | 147.32510 | 18596 ft | 427 kts | 34° |
| 2026-05-08 14:50 | -6.27739 | 147.34124 | 18896 ft | 429 kts | 34° |
| 2026-05-08 14:50 | -6.25215 | 147.35748 | 19187 ft | 432 kts | 34° |
| 2026-05-08 14:50 | -6.22680 | 147.37380 | 19472 ft | 434 kts | 34° |
| 2026-05-08 14:51 | -6.20132 | 147.39020 | 19743 ft | 436 kts | 34° |
| 2026-05-08 14:51 | -6.18438 | 147.40109 | 19947 ft | 437 kts | 34° |
| 2026-05-08 14:51 | -6.15874 | 147.41759 | 20246 ft | 439 kts | 34° |
| 2026-05-08 14:51 | -6.13293 | 147.43420 | 20449 ft | 442 kts | 34° |
| 2026-05-08 14:52 | -6.10702 | 147.45087 | 20711 ft | 444 kts | 34° |
| 2026-05-08 14:52 | -6.05487 | 147.48441 | 21238 ft | 447 kts | 34° |
| 2026-05-08 14:52 | -6.02862 | 147.50129 | 21450 ft | 449 kts | 34° |
| 2026-05-08 14:53 | -6.00221 | 147.51827 | 21681 ft | 451 kts | 34° |
| 2026-05-08 14:53 | -5.97572 | 147.53531 | 21917 ft | 453 kts | 34° |
| 2026-05-08 14:53 | -5.94911 | 147.55241 | 22143 ft | 455 kts | 34° |
| 2026-05-08 14:53 | -5.92242 | 147.56956 | 22362 ft | 457 kts | 34° |
| 2026-05-08 14:54 | -5.89558 | 147.58682 | 22559 ft | 458 kts | 34° |
| 2026-05-08 14:54 | -5.86864 | 147.60413 | 22761 ft | 460 kts | 34° |
| 2026-05-08 14:54 | -5.84163 | 147.62149 | 22967 ft | 462 kts | 34° |
| 2026-05-08 14:54 | -5.81453 | 147.63890 | 23193 ft | 463 kts | 34° |
| 2026-05-08 14:55 | -5.78733 | 147.65638 | 23394 ft | 465 kts | 34° |
| 2026-05-08 14:55 | -5.76012 | 147.67386 | 23612 ft | 465 kts | 34° |
| 2026-05-08 14:55 | -5.73286 | 147.69137 | 23793 ft | 465 kts | 34° |
| 2026-05-08 14:55 | -5.70556 | 147.70890 | 23967 ft | 466 kts | 34° |
| 2026-05-08 14:56 | -5.67819 | 147.72648 | 24126 ft | 467 kts | 34° |
| 2026-05-08 14:56 | -5.64996 | 147.74276 | 24248 ft | 471 kts | 25° |
| 2026-05-08 14:56 | -5.61868 | 147.75298 | 24405 ft | 475 kts | 13° |
| 2026-05-08 14:56 | -5.58583 | 147.75691 | 24598 ft | 478 kts | 2° |
| 2026-05-08 14:57 | -5.55252 | 147.75485 | 24763 ft | 480 kts | 355° |
| 2026-05-08 14:57 | -5.51928 | 147.75139 | 24926 ft | 481 kts | 355° |
| 2026-05-08 14:57 | -5.48590 | 147.74776 | 25056 ft | 483 kts | 355° |
| 2026-05-08 14:57 | -5.45296 | 147.74424 | 25242 ft | 483 kts | 355° |
| 2026-05-08 14:58 | -5.41957 | 147.74081 | 25437 ft | 482 kts | 355° |
| 2026-05-08 14:58 | -5.38612 | 147.73750 | 25603 ft | 483 kts | 355° |
| 2026-05-08 14:58 | -5.35263 | 147.73429 | 25739 ft | 484 kts | 356° |
| 2026-05-08 14:58 | -5.31906 | 147.73113 | 25885 ft | 485 kts | 356° |
| 2026-05-08 14:59 | -5.28540 | 147.72798 | 26033 ft | 486 kts | 356° |
| 2026-05-08 14:59 | -5.21794 | 147.72169 | 26309 ft | 488 kts | 356° |
| 2026-05-08 14:59 | -5.18416 | 147.71854 | 26444 ft | 489 kts | 356° |
| 2026-05-08 15:00 | -5.15024 | 147.71536 | 26580 ft | 489 kts | 356° |
| 2026-05-08 15:00 | -5.11631 | 147.71218 | 26712 ft | 490 kts | 356° |
| 2026-05-08 15:00 | -5.08233 | 147.70899 | 26850 ft | 491 kts | 356° |
| 2026-05-08 15:00 | -5.04828 | 147.70580 | 26969 ft | 492 kts | 356° |
| 2026-05-08 15:01 | -5.01421 | 147.70261 | 27134 ft | 492 kts | 356° |
| 2026-05-08 15:01 | -4.98014 | 147.69941 | 27338 ft | 491 kts | 356° |
| 2026-05-08 15:01 | -4.94615 | 147.69623 | 27563 ft | 490 kts | 356° |
| 2026-05-08 15:01 | -4.91228 | 147.69305 | 27774 ft | 489 kts | 356° |
| 2026-05-08 15:02 | -4.87844 | 147.68988 | 27964 ft | 489 kts | 356° |
| 2026-05-08 15:02 | -4.84461 | 147.68671 | 28161 ft | 488 kts | 356° |
| 2026-05-08 15:02 | -4.81081 | 147.68354 | 28376 ft | 487 kts | 356° |
| 2026-05-08 15:02 | -4.77709 | 147.68038 | 28618 ft | 486 kts | 356° |
| 2026-05-08 15:03 | -4.74340 | 147.67723 | 28846 ft | 486 kts | 356° |
| 2026-05-08 15:03 | -4.70977 | 147.67408 | 29059 ft | 485 kts | 356° |
| 2026-05-08 15:03 | -4.67616 | 147.67093 | 29282 ft | 485 kts | 356° |
| 2026-05-08 15:03 | -4.64262 | 147.66779 | 29516 ft | 484 kts | 356° |
| 2026-05-08 15:04 | -4.60909 | 147.66465 | 29770 ft | 483 kts | 356° |
| 2026-05-08 15:04 | -4.57562 | 147.66152 | 29996 ft | 483 kts | 356° |
| 2026-05-08 15:04 | -4.54223 | 147.65839 | 30192 ft | 482 kts | 356° |
| 2026-05-08 15:04 | -4.50888 | 147.65527 | 30415 ft | 481 kts | 356° |
| 2026-05-08 15:05 | -4.47560 | 147.65216 | 30642 ft | 480 kts | 356° |
| 2026-05-08 15:05 | -4.44279 | 147.64908 | 30839 ft | 480 kts | 356° |
| 2026-05-08 15:05 | -4.40957 | 147.64598 | 31056 ft | 479 kts | 356° |
| 2026-05-08 15:05 | -4.37643 | 147.64288 | 31303 ft | 478 kts | 356° |
| 2026-05-08 15:06 | -4.34340 | 147.63978 | 31563 ft | 476 kts | 356° |
| 2026-05-08 15:06 | -4.31000 | 147.63666 | 31814 ft | 475 kts | 356° |
| 2026-05-08 15:06 | -4.24432 | 147.63052 | 31854 ft | 477 kts | 356° |
| 2026-05-08 15:07 | -4.17843 | 147.62436 | 31857 ft | 474 kts | 356° |
| 2026-05-08 15:07 | -4.11290 | 147.61823 | 31846 ft | 472 kts | 356° |
| 2026-05-08 15:08 | -4.05821 | 147.61311 | 31857 ft | 471 kts | 356° |
| 2026-05-08 15:08 | -3.98247 | 147.60604 | 31858 ft | 470 kts | 356° |
| 2026-05-08 15:09 | -3.91728 | 147.59994 | 31855 ft | 471 kts | 356° |
| 2026-05-08 15:09 | -3.85195 | 147.59384 | 31858 ft | 472 kts | 356° |
| 2026-05-08 15:10 | -3.78646 | 147.58772 | 31858 ft | 474 kts | 356° |
| 2026-05-08 15:10 | -3.72075 | 147.58158 | 31857 ft | 475 kts | 356° |
| 2026-05-08 15:11 | -3.65480 | 147.57542 | 31851 ft | 476 kts | 356° |
| 2026-05-08 15:11 | -3.58890 | 147.56925 | 31840 ft | 469 kts | 356° |
| 2026-05-08 15:12 | -3.55699 | 147.56625 | 31838 ft | 453 kts | 356° |
| 2026-05-08 15:12 | -3.52614 | 147.56334 | 31699 ft | 441 kts | 356° |
| 2026-05-08 15:12 | -3.49538 | 147.56047 | 30818 ft | 447 kts | 356° |
| 2026-05-08 15:12 | -3.46416 | 147.55757 | 29498 ft | 455 kts | 356° |
| 2026-05-08 15:13 | -3.43226 | 147.55462 | 27929 ft | 465 kts | 356° |
| 2026-05-08 15:13 | -3.39951 | 147.55159 | 26511 ft | 480 kts | 356° |
| 2026-05-08 15:13 | -3.36610 | 147.54847 | 25549 ft | 479 kts | 356° |
| 2026-05-08 15:13 | -3.33332 | 147.54539 | 24927 ft | 471 kts | 356° |
| 2026-05-08 15:14 | -3.30076 | 147.54234 | 24305 ft | 469 kts | 356° |
| 2026-05-08 15:14 | -3.26878 | 147.53934 | 23681 ft | 466 kts | 356° |
| 2026-05-08 15:14 | -3.23612 | 147.53628 | 22969 ft | 464 kts | 356° |
| 2026-05-08 15:14 | -3.20454 | 147.53333 | 22319 ft | 460 kts | 356° |
| 2026-05-08 15:15 | -3.17273 | 147.53035 | 21684 ft | 456 kts | 356° |
| 2026-05-08 15:15 | -3.14127 | 147.52741 | 21069 ft | 452 kts | 356° |
| 2026-05-08 15:15 | -3.11013 | 147.52450 | 20464 ft | 448 kts | 356° |
| 2026-05-08 15:15 | -3.07925 | 147.52161 | 19842 ft | 444 kts | 356° |
| 2026-05-08 15:16 | -3.04859 | 147.51875 | 19235 ft | 441 kts | 356° |
| 2026-05-08 15:16 | -3.01817 | 147.51591 | 18632 ft | 438 kts | 356° |
| 2026-05-08 15:16 | -2.98795 | 147.51309 | 18016 ft | 435 kts | 356° |
| 2026-05-08 15:16 | -2.95793 | 147.51028 | 17348 ft | 431 kts | 356° |
| 2026-05-08 15:17 | -2.92820 | 147.50751 | 16737 ft | 427 kts | 356° |
| 2026-05-08 15:17 | -2.89879 | 147.50476 | 16193 ft | 421 kts | 356° |
| 2026-05-08 15:17 | -2.86982 | 147.50205 | 15675 ft | 416 kts | 356° |
| 2026-05-08 15:17 | -2.84113 | 147.49937 | 15115 ft | 412 kts | 356° |
| 2026-05-08 15:18 | -2.81268 | 147.49672 | 14560 ft | 409 kts | 356° |
| 2026-05-08 15:18 | -2.78444 | 147.49409 | 13978 ft | 407 kts | 356° |
| 2026-05-08 15:18 | -2.75629 | 147.49146 | 13370 ft | 405 kts | 356° |
| 2026-05-08 15:18 | -2.72833 | 147.48886 | 12770 ft | 402 kts | 356° |
| 2026-05-08 15:19 | -2.70062 | 147.48627 | 12198 ft | 398 kts | 356° |
| 2026-05-08 15:19 | -2.67311 | 147.48370 | 11645 ft | 395 kts | 356° |
| 2026-05-08 15:19 | -2.64594 | 147.48116 | 11277 ft | 387 kts | 356° |
| 2026-05-08 15:19 | -2.61966 | 147.47870 | 11113 ft | 373 kts | 356° |
| 2026-05-08 15:20 | -2.59424 | 147.47632 | 10946 ft | 361 kts | 356° |
| 2026-05-08 15:20 | -2.56964 | 147.47401 | 10791 ft | 350 kts | 356° |
| 2026-05-08 15:20 | -2.54576 | 147.47178 | 10645 ft | 339 kts | 356° |
| 2026-05-08 15:20 | -2.52259 | 147.46962 | 10505 ft | 330 kts | 356° |
| 2026-05-08 15:21 | -2.50009 | 147.46752 | 10373 ft | 320 kts | 356° |
| 2026-05-08 15:21 | -2.47819 | 147.46548 | 10236 ft | 312 kts | 356° |
| 2026-05-08 15:21 | -2.45690 | 147.46350 | 10108 ft | 303 kts | 356° |
| 2026-05-08 15:21 | -2.43618 | 147.46157 | 9961 ft | 296 kts | 356° |
| 2026-05-08 15:22 | -2.41568 | 147.45966 | 9672 ft | 295 kts | 356° |
| 2026-05-08 15:22 | -2.39530 | 147.45777 | 9371 ft | 293 kts | 356° |
| 2026-05-08 15:22 | -2.37502 | 147.45588 | 9071 ft | 292 kts | 356° |
| 2026-05-08 15:22 | -2.35485 | 147.45401 | 8775 ft | 290 kts | 356° |
| 2026-05-08 15:23 | -2.33477 | 147.45213 | 8486 ft | 289 kts | 356° |
| 2026-05-08 15:23 | -2.31480 | 147.45027 | 8196 ft | 288 kts | 356° |
| 2026-05-08 15:23 | -2.29493 | 147.44842 | 7907 ft | 287 kts | 356° |
| 2026-05-08 15:23 | -2.27508 | 147.44657 | 7619 ft | 286 kts | 356° |
| 2026-05-08 15:24 | -2.25530 | 147.44473 | 7325 ft | 285 kts | 356° |
| 2026-05-08 15:24 | -2.23559 | 147.44289 | 7039 ft | 284 kts | 356° |
| 2026-05-08 15:24 | -2.21593 | 147.44106 | 6754 ft | 283 kts | 356° |
| 2026-05-08 15:24 | -2.19632 | 147.43923 | 6470 ft | 283 kts | 356° |
| 2026-05-08 15:25 | -2.17673 | 147.43740 | 6158 ft | 283 kts | 356° |
| 2026-05-08 15:25 | -2.15745 | 147.43560 | 5866 ft | 282 kts | 356° |
| 2026-05-08 15:25 | -2.13795 | 147.43378 | 5570 ft | 280 kts | 356° |
| 2026-05-08 15:25 | -2.11858 | 147.43197 | 5289 ft | 279 kts | 356° |
| 2026-05-08 15:26 | -2.09928 | 147.43017 | 5006 ft | 278 kts | 356° |
| 2026-05-08 15:26 | -2.08010 | 147.42839 | 4731 ft | 277 kts | 356° |
| 2026-05-08 15:26 | -2.06096 | 147.42660 | 4454 ft | 276 kts | 356° |
| 2026-05-08 15:26 | -2.04165 | 147.42429 | 4157 ft | 276 kts | 354° |
| 2026-05-08 15:27 | -2.02298 | 147.42173 | 3901 ft | 274 kts | 354° |
| 2026-05-08 15:27 | -2.00430 | 147.41917 | 3765 ft | 267 kts | 354° |
| 2026-05-08 15:27 | -1.98613 | 147.41673 | 3636 ft | 258 kts | 354° |
| 2026-05-08 15:27 | -1.96879 | 147.41442 | 3519 ft | 245 kts | 354° |
| 2026-05-08 15:28 | -1.95233 | 147.41223 | 3398 ft | 233 kts | 355° |
| 2026-05-08 15:28 | -1.93679 | 147.40889 | 3257 ft | 228 kts | 335° |
| 2026-05-08 15:28 | -1.92649 | 147.39775 | 2999 ft | 218 kts | 289° |
| 2026-05-08 15:28 | -1.92706 | 147.38359 | 2785 ft | 201 kts | 239° |
| 2026-05-08 15:29 | -1.93688 | 147.37552 | 2641 ft | 177 kts | 186° |
| 2026-05-08 15:29 | -1.94872 | 147.37486 | 2577 ft | 167 kts | 174° |
| 2026-05-08 15:29 | -1.95945 | 147.37841 | 2368 ft | 162 kts | 152° |
| 2026-05-08 15:29 | -1.97024 | 147.38198 | 2231 ft | 161 kts | 155° |
| 2026-05-08 15:30 | -1.98059 | 147.38687 | 1974 ft | 166 kts | 148° |
| 2026-05-08 15:30 | -1.99051 | 147.39286 | 1819 ft | 166 kts | 145° |
| 2026-05-08 15:30 | -2.00025 | 147.39895 | 1539 ft | 163 kts | 146° |
| 2026-05-08 15:30 | -2.01001 | 147.40435 | 1217 ft | 160 kts | 150° |
| 2026-05-08 15:31 | -2.01997 | 147.40900 | 935 ft | 155 kts | 154° |
| 2026-05-08 15:31 | -2.02982 | 147.41290 | 631 ft | 150 kts | 155° |
| 2026-05-08 15:31 | -2.03943 | 147.41638 | 387 ft | 147 kts | 157° |
| 2026-05-08 15:31 | -2.04946 | 147.41988 | 206 ft | 154 kts | 158° |
| 2026-05-08 15:32 | -2.05917 | 147.42317 | 19 ft | 138 kts | 158° |
| 2026-05-08 15:32 | -2.06676 | 147.42591 | 10 ft | 86 kts | 160° |
| 2026-05-08 15:32 | -2.06970 | 147.42693 | 11 ft | 22 kts | 161° |
| 2026-05-08 15:32 | -2.07073 | 147.42729 | 10 ft | 11 kts | 161° |
| 2026-05-08 15:33 | -2.07150 | 147.42739 | 11 ft | 11 kts | 187° |
| 2026-05-08 15:33 | -2.07153 | 147.42771 | 11 ft | 8 kts | 354° |
| 2026-05-08 15:33 | -2.07101 | 147.42747 | 11 ft | 8 kts | 334° |
| 2026-05-08 15:33 | -2.07051 | 147.42722 | 10 ft | 8 kts | 334° |
| 2026-05-08 15:34 | -2.06995 | 147.42700 | 10 ft | 10 kts | 341° |
| 2026-05-08 15:34 | -2.06919 | 147.42674 | 12 ft | 14 kts | 340° |
| 2026-05-08 15:34 | -2.06815 | 147.42637 | 10 ft | 18 kts | 339° |
| 2026-05-08 15:34 | -2.06686 | 147.42590 | 11 ft | 21 kts | 341° |
| 2026-05-08 15:35 | -2.06538 | 147.42539 | 11 ft | 24 kts | 341° |
| 2026-05-08 15:35 | -2.06392 | 147.42488 | 9 ft | 20 kts | 340° |
| 2026-05-08 15:35 | -2.06294 | 147.42451 | 10 ft | 12 kts | 323° |
| 2026-05-08 15:35 | -2.06299 | 147.42383 | 13 ft | 8 kts | 248° |
| 2026-05-08 15:36 | -2.06313 | 147.42348 | 12 ft | 7 kts | 247° |
| 2026-05-08 15:36 | -2.06327 | 147.42316 | 12 ft | 9 kts | 270° |
| 2026-05-08 15:36 | -2.06319 | 147.42292 | 11 ft | 0 kts | 291° |